sensor_id;sensor_type;location;lat;lon;timestamp;temperature;humidity
7876;DHT22;69649;53.712;9.680;2024-03-02T00:00:25;8.70;70.90
7876;DHT22;69649;53.712;9.680;2024-03-02T00:02:52;8.80;70.90
7876;DHT22;69649;53.712;9.680;2024-03-02T00:05:20;8.80;71.00
7876;DHT22;69649;53.712;9.680;2024-03-02T00:07:52;8.80;70.80
7876;DHT22;69649;53.712;9.680;2024-03-02T00:10:16;8.80;70.90
7876;DHT22;69649;53.712;9.680;2024-03-02T00:12:46;8.80;70.80
7876;DHT22;69649;53.712;9.680;2024-03-02T00:18:05;8.70;71.10
7876;DHT22;69649;53.712;9.680;2024-03-02T00:20:31;8.70;70.80
7876;DHT22;69649;53.712;9.680;2024-03-02T00:23:02;8.60;71.10
7876;DHT22;69649;53.712;9.680;2024-03-02T00:25:26;8.60;71.30
7876;DHT22;69649;53.712;9.680;2024-03-02T00:27:52;8.60;71.40
7876;DHT22;69649;53.712;9.680;2024-03-02T00:33:06;8.60;71.40
7876;DHT22;69649;53.712;9.680;2024-03-02T00:35:32;8.60;71.20
7876;DHT22;69649;53.712;9.680;2024-03-02T00:38:06;8.60;71.40
7876;DHT22;69649;53.712;9.680;2024-03-02T00:40:32;8.60;71.40
7876;DHT22;69649;53.712;9.680;2024-03-02T00:42:59;8.60;71.30
7876;DHT22;69649;53.712;9.680;2024-03-02T00:45:25;8.60;71.60
7876;DHT22;69649;53.712;9.680;2024-03-02T00:47:51;8.60;71.70
7876;DHT22;69649;53.712;9.680;2024-03-02T00:50:18;8.60;71.50
7876;DHT22;69649;53.712;9.680;2024-03-02T00:52:45;8.60;71.60
7876;DHT22;69649;53.712;9.680;2024-03-02T00:55:12;8.60;71.60
7876;DHT22;69649;53.712;9.680;2024-03-02T00:57:37;8.60;71.60
7876;DHT22;69649;53.712;9.680;2024-03-02T01:00:04;8.60;71.60
7876;DHT22;69649;53.712;9.680;2024-03-02T01:02:31;8.60;71.50
7876;DHT22;69649;53.712;9.680;2024-03-02T01:04:57;8.60;71.30
7876;DHT22;69649;53.712;9.680;2024-03-02T01:07:23;8.60;71.30
7876;DHT22;69649;53.712;9.680;2024-03-02T01:09:49;8.60;71.50
7876;DHT22;69649;53.712;9.680;2024-03-02T01:12:15;8.60;71.50
7876;DHT22;69649;53.712;9.680;2024-03-02T01:14:40;8.60;71.60
7876;DHT22;69649;53.712;9.680;2024-03-02T01:17:06;8.60;71.60
7876;DHT22;69649;53.712;9.680;2024-03-02T01:19:32;8.60;71.60
7876;DHT22;69649;53.712;9.680;2024-03-02T01:21:58;8.60;71.50
7876;DHT22;69649;53.712;9.680;2024-03-02T01:24:23;8.70;71.40
7876;DHT22;69649;53.712;9.680;2024-03-02T01:26:49;8.60;71.50
7876;DHT22;69649;53.712;9.680;2024-03-02T01:29:15;8.60;71.50
7876;DHT22;69649;53.712;9.680;2024-03-02T01:31:40;8.60;71.90
7876;DHT22;69649;53.712;9.680;2024-03-02T01:34:08;8.60;71.90
7876;DHT22;69649;53.712;9.680;2024-03-02T01:36:34;8.60;71.90
7876;DHT22;69649;53.712;9.680;2024-03-02T01:39:00;8.60;71.90
7876;DHT22;69649;53.712;9.680;2024-03-02T01:41:26;8.60;71.90
7876;DHT22;69649;53.712;9.680;2024-03-02T01:43:52;8.60;72.00
7876;DHT22;69649;53.712;9.680;2024-03-02T01:46:19;8.60;72.10
7876;DHT22;69649;53.712;9.680;2024-03-02T01:48:45;8.60;72.10
7876;DHT22;69649;53.712;9.680;2024-03-02T01:51:10;8.60;72.20
7876;DHT22;69649;53.712;9.680;2024-03-02T01:53:37;8.60;72.20
7876;DHT22;69649;53.712;9.680;2024-03-02T01:56:03;8.60;72.10
7876;DHT22;69649;53.712;9.680;2024-03-02T01:58:29;8.60;72.00
7876;DHT22;69649;53.712;9.680;2024-03-02T02:00:55;8.70;71.90
7876;DHT22;69649;53.712;9.680;2024-03-02T02:03:20;8.60;72.30
7876;DHT22;69649;53.712;9.680;2024-03-02T02:05:46;8.60;72.20
7876;DHT22;69649;53.712;9.680;2024-03-02T02:08:13;8.60;72.30
7876;DHT22;69649;53.712;9.680;2024-03-02T02:10:39;8.70;72.10
7876;DHT22;69649;53.712;9.680;2024-03-02T02:13:05;8.70;72.20
7876;DHT22;69649;53.712;9.680;2024-03-02T02:15:31;8.70;72.20
7876;DHT22;69649;53.712;9.680;2024-03-02T02:17:58;8.70;72.20
7876;DHT22;69649;53.712;9.680;2024-03-02T02:20:25;8.60;72.50
7876;DHT22;69649;53.712;9.680;2024-03-02T02:23:06;8.60;72.60
7876;DHT22;69649;53.712;9.680;2024-03-02T02:25:29;8.60;72.70
7876;DHT22;69649;53.712;9.680;2024-03-02T02:27:55;8.60;73.10
7876;DHT22;69649;53.712;9.680;2024-03-02T02:30:24;8.60;73.20
7876;DHT22;69649;53.712;9.680;2024-03-02T02:32:50;8.60;73.40
7876;DHT22;69649;53.712;9.680;2024-03-02T02:35:16;8.60;73.50
7876;DHT22;69649;53.712;9.680;2024-03-02T02:37:42;8.60;73.60
7876;DHT22;69649;53.712;9.680;2024-03-02T02:40:09;8.60;73.80
7876;DHT22;69649;53.712;9.680;2024-03-02T02:42:35;8.50;73.70
7876;DHT22;69649;53.712;9.680;2024-03-02T02:45:00;8.50;73.80
7876;DHT22;69649;53.712;9.680;2024-03-02T02:47:26;8.40;74.20
7876;DHT22;69649;53.712;9.680;2024-03-02T02:49:52;8.50;74.20
7876;DHT22;69649;53.712;9.680;2024-03-02T02:52:18;8.40;74.30
7876;DHT22;69649;53.712;9.680;2024-03-02T02:54:44;8.40;74.30
7876;DHT22;69649;53.712;9.680;2024-03-02T02:57:09;8.50;74.00
7876;DHT22;69649;53.712;9.680;2024-03-02T02:59:35;8.50;73.90
7876;DHT22;69649;53.712;9.680;2024-03-02T03:02:01;8.50;73.70
7876;DHT22;69649;53.712;9.680;2024-03-02T03:04:27;8.50;73.70
7876;DHT22;69649;53.712;9.680;2024-03-02T03:06:53;8.50;73.70
7876;DHT22;69649;53.712;9.680;2024-03-02T03:09:18;8.50;73.80
7876;DHT22;69649;53.712;9.680;2024-03-02T03:11:44;8.50;73.70
7876;DHT22;69649;53.712;9.680;2024-03-02T03:14:10;8.40;73.90
7876;DHT22;69649;53.712;9.680;2024-03-02T03:16:36;8.50;73.80
7876;DHT22;69649;53.712;9.680;2024-03-02T03:19:02;8.50;73.80
7876;DHT22;69649;53.712;9.680;2024-03-02T03:21:27;8.50;74.10
7876;DHT22;69649;53.712;9.680;2024-03-02T03:23:53;8.50;74.30
7876;DHT22;69649;53.712;9.680;2024-03-02T03:26:19;8.50;74.30
7876;DHT22;69649;53.712;9.680;2024-03-02T03:28:45;8.40;74.40
7876;DHT22;69649;53.712;9.680;2024-03-02T03:31:10;8.40;74.50
7876;DHT22;69649;53.712;9.680;2024-03-02T03:33:36;8.40;74.50
7876;DHT22;69649;53.712;9.680;2024-03-02T03:36:02;8.40;74.50
7876;DHT22;69649;53.712;9.680;2024-03-02T03:38:29;8.30;74.60
7876;DHT22;69649;53.712;9.680;2024-03-02T03:40:55;8.30;74.70
7876;DHT22;69649;53.712;9.680;2024-03-02T03:43:21;8.30;74.80
7876;DHT22;69649;53.712;9.680;2024-03-02T03:45:47;8.30;74.80
7876;DHT22;69649;53.712;9.680;2024-03-02T03:48:13;8.30;74.80
7876;DHT22;69649;53.712;9.680;2024-03-02T03:50:39;8.30;74.70
7876;DHT22;69649;53.712;9.680;2024-03-02T03:53:05;8.30;74.70
7876;DHT22;69649;53.712;9.680;2024-03-02T03:55:30;8.20;74.90
7876;DHT22;69649;53.712;9.680;2024-03-02T03:57:56;8.20;74.70
7876;DHT22;69649;53.712;9.680;2024-03-02T04:00:22;8.20;74.90
7876;DHT22;69649;53.712;9.680;2024-03-02T04:02:48;8.10;74.90
7876;DHT22;69649;53.712;9.680;2024-03-02T04:05:13;8.20;74.90
7876;DHT22;69649;53.712;9.680;2024-03-02T04:07:39;8.20;74.90
7876;DHT22;69649;53.712;9.680;2024-03-02T04:10:07;8.20;74.90
7876;DHT22;69649;53.712;9.680;2024-03-02T04:12:34;8.20;74.70
7876;DHT22;69649;53.712;9.680;2024-03-02T04:15:01;8.20;74.60
7876;DHT22;69649;53.712;9.680;2024-03-02T04:17:27;8.10;74.80
7876;DHT22;69649;53.712;9.680;2024-03-02T04:19:53;8.20;74.80
7876;DHT22;69649;53.712;9.680;2024-03-02T04:22:18;8.20;74.70
7876;DHT22;69649;53.712;9.680;2024-03-02T04:24:44;8.10;74.60
7876;DHT22;69649;53.712;9.680;2024-03-02T04:27:10;8.10;74.70
7876;DHT22;69649;53.712;9.680;2024-03-02T04:29:36;8.10;74.80
7876;DHT22;69649;53.712;9.680;2024-03-02T04:32:01;8.10;74.70
7876;DHT22;69649;53.712;9.680;2024-03-02T04:34:27;8.10;74.80
7876;DHT22;69649;53.712;9.680;2024-03-02T04:36:53;8.10;74.70
7876;DHT22;69649;53.712;9.680;2024-03-02T04:39:18;8.00;74.80
7876;DHT22;69649;53.712;9.680;2024-03-02T04:41:44;8.00;74.80
7876;DHT22;69649;53.712;9.680;2024-03-02T04:44:10;8.00;74.90
7876;DHT22;69649;53.712;9.680;2024-03-02T04:46:36;8.00;74.90
7876;DHT22;69649;53.712;9.680;2024-03-02T04:49:02;8.00;74.90
7876;DHT22;69649;53.712;9.680;2024-03-02T04:51:27;8.00;75.10
7876;DHT22;69649;53.712;9.680;2024-03-02T04:53:53;8.00;75.10
7876;DHT22;69649;53.712;9.680;2024-03-02T04:56:19;8.00;75.10
7876;DHT22;69649;53.712;9.680;2024-03-02T04:58:47;7.90;75.40
7876;DHT22;69649;53.712;9.680;2024-03-02T05:01:13;7.90;75.50
7876;DHT22;69649;53.712;9.680;2024-03-02T05:03:38;7.90;75.50
7876;DHT22;69649;53.712;9.680;2024-03-02T05:06:04;7.80;75.40
7876;DHT22;69649;53.712;9.680;2024-03-02T05:08:30;7.80;75.30
7876;DHT22;69649;53.712;9.680;2024-03-02T05:10:55;7.80;75.20
7876;DHT22;69649;53.712;9.680;2024-03-02T05:13:23;7.80;75.50
7876;DHT22;69649;53.712;9.680;2024-03-02T05:15:49;7.80;75.40
7876;DHT22;69649;53.712;9.680;2024-03-02T05:18:14;7.70;75.60
7876;DHT22;69649;53.712;9.680;2024-03-02T05:20:40;7.80;75.70
7876;DHT22;69649;53.712;9.680;2024-03-02T05:23:06;7.80;75.50
7876;DHT22;69649;53.712;9.680;2024-03-02T05:25:31;7.80;75.50
7876;DHT22;69649;53.712;9.680;2024-03-02T05:27:58;7.80;75.40
7876;DHT22;69649;53.712;9.680;2024-03-02T05:30:24;7.80;75.30
7876;DHT22;69649;53.712;9.680;2024-03-02T05:32:51;7.80;75.20
7876;DHT22;69649;53.712;9.680;2024-03-02T05:35:17;7.80;75.10
7876;DHT22;69649;53.712;9.680;2024-03-02T05:37:43;7.60;75.20
7876;DHT22;69649;53.712;9.680;2024-03-02T05:40:10;7.70;75.20
7876;DHT22;69649;53.712;9.680;2024-03-02T05:42:36;7.70;75.20
7876;DHT22;69649;53.712;9.680;2024-03-02T05:45:03;7.60;75.20
7876;DHT22;69649;53.712;9.680;2024-03-02T05:47:29;7.60;75.20
7876;DHT22;69649;53.712;9.680;2024-03-02T05:49:54;7.60;75.10
7876;DHT22;69649;53.712;9.680;2024-03-02T05:52:20;7.50;75.30
7876;DHT22;69649;53.712;9.680;2024-03-02T05:54:46;7.50;75.40
7876;DHT22;69649;53.712;9.680;2024-03-02T05:57:12;7.50;75.50
7876;DHT22;69649;53.712;9.680;2024-03-02T05:59:56;7.50;75.50
7876;DHT22;69649;53.712;9.680;2024-03-02T06:02:22;7.40;75.50
7876;DHT22;69649;53.712;9.680;2024-03-02T06:04:47;7.40;75.50
7876;DHT22;69649;53.712;9.680;2024-03-02T06:07:13;7.40;75.60
7876;DHT22;69649;53.712;9.680;2024-03-02T06:09:40;7.30;75.70
7876;DHT22;69649;53.712;9.680;2024-03-02T06:12:07;7.20;75.70
7876;DHT22;69649;53.712;9.680;2024-03-02T06:14:32;7.20;75.70
7876;DHT22;69649;53.712;9.680;2024-03-02T06:16:58;7.20;76.00
7876;DHT22;69649;53.712;9.680;2024-03-02T06:19:25;7.20;76.10
7876;DHT22;69649;53.712;9.680;2024-03-02T06:21:50;7.20;76.20
7876;DHT22;69649;53.712;9.680;2024-03-02T06:24:16;7.20;76.20
7876;DHT22;69649;53.712;9.680;2024-03-02T06:26:42;7.20;76.30
7876;DHT22;69649;53.712;9.680;2024-03-02T06:29:08;7.20;76.20
7876;DHT22;69649;53.712;9.680;2024-03-02T06:31:33;7.20;76.30
7876;DHT22;69649;53.712;9.680;2024-03-02T06:33:59;7.20;76.20
7876;DHT22;69649;53.712;9.680;2024-03-02T06:36:25;7.20;76.00
7876;DHT22;69649;53.712;9.680;2024-03-02T06:38:51;7.30;76.10
7876;DHT22;69649;53.712;9.680;2024-03-02T06:41:17;7.20;76.10
7876;DHT22;69649;53.712;9.680;2024-03-02T06:43:42;7.20;76.10
7876;DHT22;69649;53.712;9.680;2024-03-02T06:46:08;7.20;76.20
7876;DHT22;69649;53.712;9.680;2024-03-02T06:48:35;7.20;76.20
7876;DHT22;69649;53.712;9.680;2024-03-02T06:51:00;7.30;76.20
7876;DHT22;69649;53.712;9.680;2024-03-02T06:53:26;7.30;76.10
7876;DHT22;69649;53.712;9.680;2024-03-02T06:55:52;7.40;76.10
7876;DHT22;69649;53.712;9.680;2024-03-02T06:58:18;7.30;76.00
7876;DHT22;69649;53.712;9.680;2024-03-02T07:00:44;7.20;76.60
7876;DHT22;69649;53.712;9.680;2024-03-02T07:03:10;7.20;77.00
7876;DHT22;69649;53.712;9.680;2024-03-02T07:05:36;7.20;76.80
7876;DHT22;69649;53.712;9.680;2024-03-02T07:08:01;7.20;76.60
7876;DHT22;69649;53.712;9.680;2024-03-02T07:10:28;7.20;76.90
7876;DHT22;69649;53.712;9.680;2024-03-02T07:12:54;7.30;76.60
7876;DHT22;69649;53.712;9.680;2024-03-02T07:15:19;7.40;76.40
7876;DHT22;69649;53.712;9.680;2024-03-02T07:18:04;7.50;76.00
7876;DHT22;69649;53.712;9.680;2024-03-02T07:20:30;7.50;75.80
7876;DHT22;69649;53.712;9.680;2024-03-02T07:22:56;7.50;75.70
7876;DHT22;69649;53.712;9.680;2024-03-02T07:25:21;7.50;75.80
7876;DHT22;69649;53.712;9.680;2024-03-02T07:27:47;7.60;75.50
7876;DHT22;69649;53.712;9.680;2024-03-02T07:30:14;7.60;75.40
7876;DHT22;69649;53.712;9.680;2024-03-02T07:32:42;7.80;75.10
7876;DHT22;69649;53.712;9.680;2024-03-02T07:35:09;7.80;75.00
7876;DHT22;69649;53.712;9.680;2024-03-02T07:37:35;7.80;74.80
7876;DHT22;69649;53.712;9.680;2024-03-02T07:40:01;7.90;74.50
7876;DHT22;69649;53.712;9.680;2024-03-02T07:42:26;8.00;74.40
7876;DHT22;69649;53.712;9.680;2024-03-02T07:44:52;8.00;74.20
7876;DHT22;69649;53.712;9.680;2024-03-02T07:47:18;8.00;74.30
7876;DHT22;69649;53.712;9.680;2024-03-02T07:49:44;8.00;74.20
7876;DHT22;69649;53.712;9.680;2024-03-02T07:52:11;8.10;74.20
7876;DHT22;69649;53.712;9.680;2024-03-02T07:54:37;8.20;74.00
7876;DHT22;69649;53.712;9.680;2024-03-02T07:57:03;8.30;73.40
7876;DHT22;69649;53.712;9.680;2024-03-02T07:59:29;8.40;73.30
7876;DHT22;69649;53.712;9.680;2024-03-02T08:01:55;8.40;73.30
7876;DHT22;69649;53.712;9.680;2024-03-02T08:04:21;8.50;72.90
7876;DHT22;69649;53.712;9.680;2024-03-02T08:06:46;8.60;72.60
7876;DHT22;69649;53.712;9.680;2024-03-02T08:09:12;8.70;72.20
7876;DHT22;69649;53.712;9.680;2024-03-02T08:11:38;8.80;72.10
7876;DHT22;69649;53.712;9.680;2024-03-02T08:14:04;8.90;71.70
7876;DHT22;69649;53.712;9.680;2024-03-02T08:16:30;9.00;71.40
7876;DHT22;69649;53.712;9.680;2024-03-02T08:18:56;9.00;71.20
7876;DHT22;69649;53.712;9.680;2024-03-02T08:21:25;9.10;71.20
7876;DHT22;69649;53.712;9.680;2024-03-02T08:23:51;9.20;70.70
7876;DHT22;69649;53.712;9.680;2024-03-02T08:26:17;9.20;70.50
7876;DHT22;69649;53.712;9.680;2024-03-02T08:28:43;9.30;70.40
7876;DHT22;69649;53.712;9.680;2024-03-02T08:31:09;9.30;70.20
7876;DHT22;69649;53.712;9.680;2024-03-02T08:33:35;9.30;70.00
7876;DHT22;69649;53.712;9.680;2024-03-02T08:36:01;9.30;70.10
7876;DHT22;69649;53.712;9.680;2024-03-02T08:38:27;9.40;69.30
7876;DHT22;69649;53.712;9.680;2024-03-02T08:40:53;9.50;69.50
7876;DHT22;69649;53.712;9.680;2024-03-02T08:43:19;9.60;69.00
7876;DHT22;69649;53.712;9.680;2024-03-02T08:45:45;9.70;68.70
7876;DHT22;69649;53.712;9.680;2024-03-02T08:48:12;9.70;68.90
7876;DHT22;69649;53.712;9.680;2024-03-02T08:50:38;9.60;68.50
7876;DHT22;69649;53.712;9.680;2024-03-02T08:53:04;9.70;68.80
7876;DHT22;69649;53.712;9.680;2024-03-02T08:55:30;9.80;68.70
7876;DHT22;69649;53.712;9.680;2024-03-02T08:57:56;9.80;68.40
7876;DHT22;69649;53.712;9.680;2024-03-02T09:00:23;9.90;68.30
7876;DHT22;69649;53.712;9.680;2024-03-02T09:02:49;10.00;68.20
7876;DHT22;69649;53.712;9.680;2024-03-02T09:05:15;10.00;67.70
7876;DHT22;69649;53.712;9.680;2024-03-02T09:07:41;10.00;67.50
7876;DHT22;69649;53.712;9.680;2024-03-02T09:10:26;10.00;67.90
7876;DHT22;69649;53.712;9.680;2024-03-02T09:12:52;10.10;68.00
7876;DHT22;69649;53.712;9.680;2024-03-02T09:15:18;10.20;67.00
7876;DHT22;69649;53.712;9.680;2024-03-02T09:17:43;10.30;66.60
7876;DHT22;69649;53.712;9.680;2024-03-02T09:20:10;10.40;66.20
7876;DHT22;69649;53.712;9.680;2024-03-02T09:22:36;10.40;65.90
7876;DHT22;69649;53.712;9.680;2024-03-02T09:25:02;10.30;66.00
7876;DHT22;69649;53.712;9.680;2024-03-02T09:27:28;10.40;66.00
7876;DHT22;69649;53.712;9.680;2024-03-02T09:29:54;10.50;64.90
7876;DHT22;69649;53.712;9.680;2024-03-02T09:32:19;10.60;65.70
7876;DHT22;69649;53.712;9.680;2024-03-02T09:34:45;10.70;64.90
7876;DHT22;69649;53.712;9.680;2024-03-02T09:37:13;10.90;65.10
7876;DHT22;69649;53.712;9.680;2024-03-02T09:39:39;10.80;63.60
7876;DHT22;69649;53.712;9.680;2024-03-02T09:42:05;11.00;64.20
7876;DHT22;69649;53.712;9.680;2024-03-02T09:44:33;11.00;63.30
7876;DHT22;69649;53.712;9.680;2024-03-02T09:46:58;11.10;63.40
7876;DHT22;69649;53.712;9.680;2024-03-02T09:49:24;11.00;63.20
7876;DHT22;69649;53.712;9.680;2024-03-02T09:51:50;11.10;63.00
7876;DHT22;69649;53.712;9.680;2024-03-02T09:54:16;11.30;62.40
7876;DHT22;69649;53.712;9.680;2024-03-02T09:56:42;11.40;62.40
7876;DHT22;69649;53.712;9.680;2024-03-02T09:59:08;11.50;62.50
7876;DHT22;69649;53.712;9.680;2024-03-02T10:01:34;11.50;62.60
7876;DHT22;69649;53.712;9.680;2024-03-02T10:04:01;11.70;62.60
7876;DHT22;69649;53.712;9.680;2024-03-02T10:06:28;11.90;61.80
7876;DHT22;69649;53.712;9.680;2024-03-02T10:08:55;11.90;60.70
7876;DHT22;69649;53.712;9.680;2024-03-02T10:11:32;11.80;61.40
7876;DHT22;69649;53.712;9.680;2024-03-02T10:14:08;11.90;61.30
7876;DHT22;69649;53.712;9.680;2024-03-02T10:16:41;11.90;62.00
7876;DHT22;69649;53.712;9.680;2024-03-02T10:24:18;11.90;61.10
7876;DHT22;69649;53.712;9.680;2024-03-02T10:26:44;11.90;61.20
7876;DHT22;69649;53.712;9.680;2024-03-02T10:29:10;12.00;60.90
7876;DHT22;69649;53.712;9.680;2024-03-02T10:31:40;12.10;61.50
7876;DHT22;69649;53.712;9.680;2024-03-02T10:34:11;12.30;61.00
7876;DHT22;69649;53.712;9.680;2024-03-02T10:36:43;12.50;60.20
7876;DHT22;69649;53.712;9.680;2024-03-02T10:39:10;12.40;59.90
7876;DHT22;69649;53.712;9.680;2024-03-02T10:41:37;12.50;60.50
7876;DHT22;69649;53.712;9.680;2024-03-02T10:44:09;12.60;59.80
7876;DHT22;69649;53.712;9.680;2024-03-02T10:46:33;12.60;59.00
7876;DHT22;69649;53.712;9.680;2024-03-02T10:49:00;12.70;59.10
7876;DHT22;69649;53.712;9.680;2024-03-02T10:51:27;12.80;59.30
7876;DHT22;69649;53.712;9.680;2024-03-02T10:53:58;12.70;59.40
7876;DHT22;69649;53.712;9.680;2024-03-02T10:56:32;12.70;58.80
7876;DHT22;69649;53.712;9.680;2024-03-02T11:01:56;12.50;59.60
7876;DHT22;69649;53.712;9.680;2024-03-02T11:04:25;12.50;59.80
7876;DHT22;69649;53.712;9.680;2024-03-02T11:06:52;12.60;59.40
7876;DHT22;69649;53.712;9.680;2024-03-02T11:09:25;12.70;58.90
7876;DHT22;69649;53.712;9.680;2024-03-02T11:12:03;12.60;59.20
7876;DHT22;69649;53.712;9.680;2024-03-02T11:14:31;12.70;59.00
7876;DHT22;69649;53.712;9.680;2024-03-02T11:17:00;12.80;59.10
7876;DHT22;69649;53.712;9.680;2024-03-02T11:19:27;12.90;58.90
7876;DHT22;69649;53.712;9.680;2024-03-02T11:21:53;12.80;58.00
7876;DHT22;69649;53.712;9.680;2024-03-02T11:26:54;12.80;57.80
7876;DHT22;69649;53.712;9.680;2024-03-02T11:32:06;12.90;58.10
7876;DHT22;69649;53.712;9.680;2024-03-02T11:34:34;13.00;57.50
7876;DHT22;69649;53.712;9.680;2024-03-02T11:37:03;13.10;57.00
7876;DHT22;69649;53.712;9.680;2024-03-02T11:39:30;12.80;57.30
7876;DHT22;69649;53.712;9.680;2024-03-02T11:41:56;12.90;58.00
7876;DHT22;69649;53.712;9.680;2024-03-02T11:44:29;12.90;57.50
7876;DHT22;69649;53.712;9.680;2024-03-02T11:47:02;13.00;56.80
7876;DHT22;69649;53.712;9.680;2024-03-02T11:49:48;13.10;56.50
7876;DHT22;69649;53.712;9.680;2024-03-02T11:52:15;12.90;56.90
7876;DHT22;69649;53.712;9.680;2024-03-02T11:54:44;12.80;57.10
7876;DHT22;69649;53.712;9.680;2024-03-02T11:57:21;13.00;56.90
7876;DHT22;69649;53.712;9.680;2024-03-02T11:59:51;13.20;57.20
7876;DHT22;69649;53.712;9.680;2024-03-02T12:02:19;13.30;57.10
7876;DHT22;69649;53.712;9.680;2024-03-02T12:04:46;13.20;57.30
7876;DHT22;69649;53.712;9.680;2024-03-02T12:07:23;13.30;57.30
7876;DHT22;69649;53.712;9.680;2024-03-02T12:10:00;13.50;57.60
7876;DHT22;69649;53.712;9.680;2024-03-02T12:12:29;13.50;56.30
7876;DHT22;69649;53.712;9.680;2024-03-02T12:14:55;13.60;56.20
7876;DHT22;69649;53.712;9.680;2024-03-02T12:17:22;13.60;56.20
7876;DHT22;69649;53.712;9.680;2024-03-02T12:19:48;13.60;56.20
7876;DHT22;69649;53.712;9.680;2024-03-02T12:22:14;13.50;57.00
7876;DHT22;69649;53.712;9.680;2024-03-02T12:24:41;13.50;56.30
7876;DHT22;69649;53.712;9.680;2024-03-02T12:27:07;13.50;56.60
7876;DHT22;69649;53.712;9.680;2024-03-02T12:29:34;13.60;56.40
7876;DHT22;69649;53.712;9.680;2024-03-02T12:32:00;13.60;56.10
7876;DHT22;69649;53.712;9.680;2024-03-02T12:34:27;13.60;56.30
7876;DHT22;69649;53.712;9.680;2024-03-02T12:36:53;13.50;56.40
7876;DHT22;69649;53.712;9.680;2024-03-02T12:39:19;13.50;56.50
7876;DHT22;69649;53.712;9.680;2024-03-02T12:41:49;13.60;56.30
7876;DHT22;69649;53.712;9.680;2024-03-02T12:44:18;13.70;55.50
7876;DHT22;69649;53.712;9.680;2024-03-02T12:46:43;13.60;56.00
7876;DHT22;69649;53.712;9.680;2024-03-02T12:49:11;13.80;55.40
7876;DHT22;69649;53.712;9.680;2024-03-02T12:51:39;13.80;56.00
7876;DHT22;69649;53.712;9.680;2024-03-02T12:54:10;13.80;55.30
7876;DHT22;69649;53.712;9.680;2024-03-02T12:56:37;13.70;55.50
7876;DHT22;69649;53.712;9.680;2024-03-02T12:59:03;13.90;55.60
7876;DHT22;69649;53.712;9.680;2024-03-02T13:01:29;14.00;55.50
7876;DHT22;69649;53.712;9.680;2024-03-02T13:03:58;14.00;55.30
7876;DHT22;69649;53.712;9.680;2024-03-02T13:06:25;14.10;54.80
7876;DHT22;69649;53.712;9.680;2024-03-02T13:08:53;14.30;55.00
7876;DHT22;69649;53.712;9.680;2024-03-02T13:11:21;14.40;54.90
7876;DHT22;69649;53.712;9.680;2024-03-02T13:13:49;14.60;54.80
7876;DHT22;69649;53.712;9.680;2024-03-02T13:16:15;14.80;54.10
7876;DHT22;69649;53.712;9.680;2024-03-02T13:18:42;14.80;54.00
7876;DHT22;69649;53.712;9.680;2024-03-02T13:21:08;14.80;53.80
7876;DHT22;69649;53.712;9.680;2024-03-02T13:23:34;14.70;53.40
7876;DHT22;69649;53.712;9.680;2024-03-02T13:26:01;14.80;53.70
7876;DHT22;69649;53.712;9.680;2024-03-02T13:28:27;14.90;53.50
7876;DHT22;69649;53.712;9.680;2024-03-02T13:30:53;14.80;53.70
7876;DHT22;69649;53.712;9.680;2024-03-02T13:33:19;14.90;53.90
7876;DHT22;69649;53.712;9.680;2024-03-02T13:35:47;15.00;53.20
7876;DHT22;69649;53.712;9.680;2024-03-02T13:38:12;15.30;52.50
7876;DHT22;69649;53.712;9.680;2024-03-02T13:40:38;15.40;52.80
7876;DHT22;69649;53.712;9.680;2024-03-02T13:43:04;15.50;52.30
7876;DHT22;69649;53.712;9.680;2024-03-02T13:45:30;15.60;52.10
7876;DHT22;69649;53.712;9.680;2024-03-02T13:47:56;15.80;51.80
7876;DHT22;69649;53.712;9.680;2024-03-02T13:50:22;15.90;51.90
7876;DHT22;69649;53.712;9.680;2024-03-02T13:52:47;16.00;51.80
7876;DHT22;69649;53.712;9.680;2024-03-02T13:55:13;16.20;52.60
7876;DHT22;69649;53.712;9.680;2024-03-02T13:57:39;16.10;52.30
7876;DHT22;69649;53.712;9.680;2024-03-02T14:00:06;16.20;51.70
7876;DHT22;69649;53.712;9.680;2024-03-02T14:02:34;16.10;52.30
7876;DHT22;69649;53.712;9.680;2024-03-02T14:05:00;16.00;52.10
7876;DHT22;69649;53.712;9.680;2024-03-02T14:07:26;16.20;52.10
7876;DHT22;69649;53.712;9.680;2024-03-02T14:09:52;16.20;51.50
7876;DHT22;69649;53.712;9.680;2024-03-02T14:12:18;16.10;51.70
7876;DHT22;69649;53.712;9.680;2024-03-02T14:14:43;16.20;51.60
7876;DHT22;69649;53.712;9.680;2024-03-02T14:17:09;16.10;52.00
7876;DHT22;69649;53.712;9.680;2024-03-02T14:19:37;16.00;52.10
7876;DHT22;69649;53.712;9.680;2024-03-02T14:22:03;16.00;51.70
7876;DHT22;69649;53.712;9.680;2024-03-02T14:24:28;16.00;52.00
7876;DHT22;69649;53.712;9.680;2024-03-02T14:26:55;16.40;51.90
7876;DHT22;69649;53.712;9.680;2024-03-02T14:29:22;16.90;51.00
7876;DHT22;69649;53.712;9.680;2024-03-02T14:31:48;17.20;50.20
7876;DHT22;69649;53.712;9.680;2024-03-02T14:34:14;17.30;49.50
7876;DHT22;69649;53.712;9.680;2024-03-02T14:36:41;17.80;49.30
7876;DHT22;69649;53.712;9.680;2024-03-02T14:39:09;18.00;48.70
7876;DHT22;69649;53.712;9.680;2024-03-02T14:41:38;17.80;49.20
7876;DHT22;69649;53.712;9.680;2024-03-02T14:44:04;17.90;48.80
7876;DHT22;69649;53.712;9.680;2024-03-02T14:46:31;18.10;48.80
7876;DHT22;69649;53.712;9.680;2024-03-02T14:48:57;18.20;48.70
7876;DHT22;69649;53.712;9.680;2024-03-02T14:51:23;18.70;47.80
7876;DHT22;69649;53.712;9.680;2024-03-02T14:53:50;19.30;47.70
7876;DHT22;69649;53.712;9.680;2024-03-02T14:56:16;20.20;46.00
7876;DHT22;69649;53.712;9.680;2024-03-02T14:58:42;21.10;46.10
7876;DHT22;69649;53.712;9.680;2024-03-02T15:01:07;21.30;44.20
7876;DHT22;69649;53.712;9.680;2024-03-02T15:03:35;21.80;43.80
7876;DHT22;69649;53.712;9.680;2024-03-02T15:06:01;22.10;42.80
7876;DHT22;69649;53.712;9.680;2024-03-02T15:08:30;22.50;43.30
7876;DHT22;69649;53.712;9.680;2024-03-02T15:10:55;22.50;43.00
7876;DHT22;69649;53.712;9.680;2024-03-02T15:13:23;22.50;42.40
7876;DHT22;69649;53.712;9.680;2024-03-02T15:15:49;22.60;42.70
7876;DHT22;69649;53.712;9.680;2024-03-02T15:18:14;22.60;42.50
7876;DHT22;69649;53.712;9.680;2024-03-02T15:20:40;21.80;42.80
7876;DHT22;69649;53.712;9.680;2024-03-02T15:23:06;21.90;44.00
7876;DHT22;69649;53.712;9.680;2024-03-02T15:25:32;22.00;43.50
7876;DHT22;69649;53.712;9.680;2024-03-02T15:27:57;22.00;42.90
7876;DHT22;69649;53.712;9.680;2024-03-02T15:30:23;21.70;43.40
7876;DHT22;69649;53.712;9.680;2024-03-02T15:32:49;21.30;43.90
7876;DHT22;69649;53.712;9.680;2024-03-02T15:35:15;20.50;44.90
7876;DHT22;69649;53.712;9.680;2024-03-02T15:37:40;19.90;45.50
7876;DHT22;69649;53.712;9.680;2024-03-02T15:40:07;19.20;46.20
7876;DHT22;69649;53.712;9.680;2024-03-02T15:42:34;18.70;46.90
7876;DHT22;69649;53.712;9.680;2024-03-02T15:45:00;18.70;47.20
7876;DHT22;69649;53.712;9.680;2024-03-02T15:47:27;18.50;47.40
7876;DHT22;69649;53.712;9.680;2024-03-02T15:49:53;18.20;47.50
7876;DHT22;69649;53.712;9.680;2024-03-02T15:52:19;18.00;48.10
7876;DHT22;69649;53.712;9.680;2024-03-02T15:54:49;17.60;48.70
7876;DHT22;69649;53.712;9.680;2024-03-02T15:57:17;17.20;49.20
7876;DHT22;69649;53.712;9.680;2024-03-02T15:59:43;17.00;49.50
7876;DHT22;69649;53.712;9.680;2024-03-02T16:02:09;16.60;49.80
7876;DHT22;69649;53.712;9.680;2024-03-02T16:04:35;16.40;50.70
7876;DHT22;69649;53.712;9.680;2024-03-02T16:07:01;16.20;50.80
7876;DHT22;69649;53.712;9.680;2024-03-02T16:09:26;15.90;51.30